Time;durP1;ratioP1;P1;durP2;ratioP2;P2;SDS_P1;SDS_P2;PMS_P1;PMS_P2;Temp;Humidity;BMP_temperature;BMP_pressure;BME280_temperature;BME280_humidity;BME280_pressure;Samples;Min_cycle;Max_cycle;Signal;HPM_P1;HPM_P2
2022/08/31 00:04:04;;;;;;;;;;;28.30;62.10;;;;;;869758;22;1929;-83
2022/08/31 00:04:25;;;;;;;;;;;28.30;61.20;;;;;;869947;22;837;-85
2022/08/31 00:04:46;;;;;;;;;;;28.30;62.20;;;;;;869791;22;765;-82
2022/08/31 00:05:07;;;;;;;;;;;28.20;61.10;;;;;;869765;22;876;-83
2022/08/31 00:05:28;;;;;;;;;;;28.30;62.20;;;;;;869815;22;933;-82
2022/08/31 00:05:48;;;;;;;;;;;28.20;61.20;;;;;;869728;22;738;-81
2022/08/31 00:06:09;;;;;;;;;;;28.30;61.30;;;;;;869854;22;785;-83
2022/08/31 00:06:30;;;;;;;;;;;28.20;61.20;;;;;;869905;22;912;-85
2022/08/31 00:06:51;;;;;;;;;;;28.30;61.20;;;;;;870002;22;811;-85
2022/08/31 00:07:11;;;;;;;;;;;28.30;61.20;;;;;;869820;22;731;-84
2022/08/31 00:07:33;;;;;;;;;;;28.30;61.20;;;;;;869836;22;765;-83
2022/08/31 00:07:54;;;;;;;;;;;28.30;61.20;;;;;;869797;22;793;-84
2022/08/31 00:08:15;;;;;;;;;;;28.30;61.20;;;;;;869645;22;893;-84
2022/08/31 00:08:37;;;;;;;;;;;28.30;61.30;;;;;;869844;22;761;-84
2022/08/31 00:08:58;;;;;;;;;;;28.30;61.20;;;;;;869321;22;913;-86
2022/08/31 00:09:18;;;;;;;;;;;28.30;61.20;;;;;;869613;22;822;-83
2022/08/31 00:09:39;;;;;;;;;;;28.30;61.20;;;;;;869751;22;884;-84
2022/08/31 00:10:02;;;;;;;;;;;28.30;61.20;;;;;;869881;22;805;-83
2022/08/31 00:10:27;;;;;;;;;;;28.30;61.20;;;;;;869861;22;829;-84
2022/08/31 00:10:48;;;;;;;;;;;28.30;61.10;;;;;;869797;22;785;-85
2022/08/31 00:11:12;;;;;;;;;;;28.30;61.20;;;;;;869760;22;868;-82
2022/08/31 00:11:34;;;;;;;;;;;28.30;61.20;;;;;;864185;22;1393;-81
2022/08/31 00:11:58;;;;;;;;;;;28.30;61.20;;;;;;865315;22;828;-82
2022/08/31 00:12:20;;;;;;;;;;;28.30;61.20;;;;;;865149;22;920;-81
2022/08/31 00:12:43;;;;;;;;;;;28.30;61.20;;;;;;865457;22;800;-81
2022/08/31 00:13:07;;;;;;;;;;;28.30;61.30;;;;;;861039;23;1073;-81
2022/08/31 00:13:28;;;;;;;;;;;28.30;61.30;;;;;;864115;22;797;-83
2022/08/31 00:13:48;;;;;;;;;;;28.30;61.30;;;;;;865204;22;758;-82
2022/08/31 00:14:09;;;;;;;;;;;28.30;61.10;;;;;;865380;22;758;-82
2022/08/31 00:14:29;;;;;;;;;;;28.30;61.00;;;;;;865389;22;780;-84
2022/08/31 00:14:50;;;;;;;;;;;28.30;61.50;;;;;;866537;22;799;-82
2022/08/31 00:15:13;;;;;;;;;;;28.20;61.50;;;;;;869793;22;760;-86
2022/08/31 00:15:34;;;;;;;;;;;28.30;61.50;;;;;;869818;22;812;-85
2022/08/31 00:15:54;;;;;;;;;;;28.30;61.30;;;;;;869822;22;800;-85
2022/08/31 00:16:15;;;;;;;;;;;28.30;61.30;;;;;;869765;22;796;-85
2022/08/31 00:16:37;;;;;;;;;;;28.30;61.60;;;;;;869852;22;749;-85
2022/08/31 00:16:58;;;;;;;;;;;28.30;61.30;;;;;;869897;22;867;-83
2022/08/31 00:17:18;;;;;;;;;;;28.30;61.30;;;;;;869854;22;867;-81
2022/08/31 00:17:39;;;;;;;;;;;28.40;62.30;;;;;;869828;22;1002;-84
2022/08/31 00:18:00;;;;;;;;;;;28.30;61.40;;;;;;869922;22;749;-85
2022/08/31 00:18:21;;;;;;;;;;;28.30;61.10;;;;;;869868;22;820;-84
2022/08/31 00:18:41;;;;;;;;;;;28.40;61.20;;;;;;869687;22;892;-84
2022/08/31 00:19:02;;;;;;;;;;;28.30;61.10;;;;;;869814;22;706;-83
2022/08/31 00:19:23;;;;;;;;;;;28.30;61.10;;;;;;869879;22;952;-82
2022/08/31 00:19:43;;;;;;;;;;;28.30;61.10;;;;;;869766;22;520;-84
2022/08/31 00:20:05;;;;;;;;;;;28.30;61.40;;;;;;869686;22;808;-82
2022/08/31 00:20:27;;;;;;;;;;;28.40;61.20;;;;;;869894;22;871;-85
2022/08/31 00:20:48;;;;;;;;;;;28.40;61.10;;;;;;869825;22;828;-84
2022/08/31 00:21:08;;;;;;;;;;;28.30;61.00;;;;;;869871;22;788;-85
2022/08/31 00:21:29;;;;;;;;;;;28.40;61.20;;;;;;869857;22;769;-83
2022/08/31 00:21:49;;;;;;;;;;;28.40;61.10;;;;;;869766;22;797;-83
2022/08/31 00:22:11;;;;;;;;;;;28.40;61.10;;;;;;869666;22;881;-84
2022/08/31 00:22:32;;;;;;;;;;;28.40;61.00;;;;;;869726;22;940;-84
2022/08/31 00:22:52;;;;;;;;;;;28.40;61.00;;;;;;869773;22;864;-85
2022/08/31 00:23:14;;;;;;;;;;;28.40;61.00;;;;;;869637;22;876;-83
2022/08/31 00:23:35;;;;;;;;;;;28.40;61.00;;;;;;869804;22;832;-86
2022/08/31 00:23:55;;;;;;;;;;;28.40;61.20;;;;;;869807;22;975;-87
2022/08/31 00:24:16;;;;;;;;;;;28.40;60.90;;;;;;869597;22;1931;-82
2022/08/31 00:24:37;;;;;;;;;;;28.40;61.00;;;;;;869766;22;825;-85
2022/08/31 00:24:58;;;;;;;;;;;28.40;61.00;;;;;;865443;22;809;-82
2022/08/31 00:25:19;;;;;;;;;;;28.30;60.90;;;;;;865256;22;808;-84
2022/08/31 00:25:41;;;;;;;;;;;28.40;60.80;;;;;;865191;22;832;-83
2022/08/31 00:26:02;;;;;;;;;;;28.40;60.80;;;;;;865270;22;856;-84
2022/08/31 00:26:23;;;;;;;;;;;28.40;60.80;;;;;;865361;22;804;-82
2022/08/31 00:26:43;;;;;;;;;;;28.40;60.80;;;;;;866374;22;781;-85
2022/08/31 00:27:04;;;;;;;;;;;28.50;60.90;;;;;;869661;22;880;-84
2022/08/31 00:27:24;;;;;;;;;;;28.40;60.70;;;;;;869819;22;863;-85
2022/08/31 00:27:45;;;;;;;;;;;28.40;60.80;;;;;;869833;22;887;-83
2022/08/31 00:28:07;;;;;;;;;;;28.40;60.80;;;;;;869717;22;797;-83
2022/08/31 00:28:27;;;;;;;;;;;28.50;60.80;;;;;;869844;22;792;-85
2022/08/31 00:28:48;;;;;;;;;;;28.40;60.80;;;;;;869756;22;789;-86
2022/08/31 00:29:09;;;;;;;;;;;28.50;60.70;;;;;;869714;22;884;-83
2022/08/31 00:29:30;;;;;;;;;;;28.40;60.70;;;;;;869882;22;828;-84
2022/08/31 00:29:51;;;;;;;;;;;28.40;60.70;;;;;;869905;22;816;-86
2022/08/31 00:30:11;;;;;;;;;;;28.50;60.90;;;;;;869731;22;773;-82
2022/08/31 00:30:32;;;;;;;;;;;28.40;60.70;;;;;;869778;22;836;-81
2022/08/31 00:30:52;;;;;;;;;;;28.50;60.80;;;;;;869846;22;809;-83
2022/08/31 00:31:13;;;;;;;;;;;28.40;60.60;;;;;;869770;22;812;-82
2022/08/31 00:31:34;;;;;;;;;;;28.50;60.70;;;;;;869654;22;848;-83
2022/08/31 00:31:54;;;;;;;;;;;28.50;60.60;;;;;;869913;22;796;-82
2022/08/31 00:32:15;;;;;;;;;;;28.40;60.50;;;;;;869751;22;844;-83
2022/08/31 00:32:35;;;;;;;;;;;28.50;60.60;;;;;;869682;22;1343;-82
2022/08/31 00:32:56;;;;;;;;;;;28.50;60.60;;;;;;869903;22;867;-83
2022/08/31 00:33:17;;;;;;;;;;;28.50;60.70;;;;;;869653;22;832;-85
2022/08/31 00:33:38;;;;;;;;;;;28.50;60.70;;;;;;869814;22;809;-85
2022/08/31 00:33:58;;;;;;;;;;;28.50;60.60;;;;;;869742;22;1297;-83
2022/08/31 00:34:21;;;;;;;;;;;28.50;60.60;;;;;;869702;22;793;-82
2022/08/31 00:34:41;;;;;;;;;;;28.50;60.60;;;;;;869700;22;769;-85
2022/08/31 00:35:03;;;;;;;;;;;28.50;60.60;;;;;;869723;22;753;-82
2022/08/31 00:35:24;;;;;;;;;;;;;;;;;;869700;22;1062;-83
2022/08/31 00:35:45;;;;;;;;;;;28.50;60.50;;;;;;864198;22;1001;-82
2022/08/31 00:36:07;;;;;;;;;;;28.50;60.50;;;;;;865276;22;761;-82
2022/08/31 00:36:28;;;;;;;;;;;28.50;60.50;;;;;;865366;22;838;-85
2022/08/31 00:36:48;;;;;;;;;;;28.50;60.50;;;;;;865497;22;777;-83
2022/08/31 00:37:09;;;;;;;;;;;28.50;60.40;;;;;;865594;22;797;-84
2022/08/31 00:37:29;;;;;;;;;;;28.50;60.50;;;;;;866774;22;769;-84
2022/08/31 00:37:50;;;;;;;;;;;28.40;60.40;;;;;;870225;22;804;-82
2022/08/31 00:38:11;;;;;;;;;;;28.50;60.40;;;;;;870195;22;764;-82
2022/08/31 00:38:32;;;;;;;;;;;28.50;60.40;;;;;;870229;22;840;-81
2022/08/31 00:38:53;;;;;;;;;;;28.50;60.30;;;;;;870235;22;793;-84
2022/08/31 00:39:13;;;;;;;;;;;28.50;60.40;;;;;;870086;22;777;-85
2022/08/31 00:39:34;;;;;;;;;;;28.50;60.40;;;;;;870200;22;842;-82
2022/08/31 00:39:55;;;;;;;;;;;28.50;60.40;;;;;;865480;22;1327;-82
2022/08/31 00:40:15;;;;;;;;;;;28.50;60.40;;;;;;865597;22;765;-82
2022/08/31 00:40:36;;;;;;;;;;;28.50;60.60;;;;;;865475;22;891;-83
2022/08/31 00:40:57;;;;;;;;;;;28.50;60.40;;;;;;865936;22;919;-83
2022/08/31 00:41:24;;;;;;;;;;;28.50;60.40;;;;;;865674;22;912;-85
2022/08/31 00:41:46;;;;;;;;;;;28.50;60.30;;;;;;863217;22;1309;-83
2022/08/31 00:42:07;;;;;;;;;;;28.50;60.30;;;;;;865873;22;844;-83
2022/08/31 00:42:27;;;;;;;;;;;28.50;60.30;;;;;;865962;22;789;-86
2022/08/31 00:42:48;;;;;;;;;;;28.50;60.40;;;;;;865684;22;789;-85
2022/08/31 00:43:09;;;;;;;;;;;28.50;60.40;;;;;;865620;22;813;-83
2022/08/31 00:43:36;;;;;;;;;;;28.50;60.50;;;;;;866516;22;821;-82
2022/08/31 00:43:58;;;;;;;;;;;28.50;60.30;;;;;;870515;22;773;-84
2022/08/31 00:44:18;;;;;;;;;;;28.50;60.50;;;;;;869853;22;1896;-83
2022/08/31 00:44:39;;;;;;;;;;;28.50;60.30;;;;;;869874;22;844;-82
2022/08/31 00:45:00;;;;;;;;;;;28.50;60.30;;;;;;869901;22;780;-83
2022/08/31 00:45:21;;;;;;;;;;;28.40;60.30;;;;;;869778;22;845;-84
2022/08/31 00:45:41;;;;;;;;;;;28.50;60.30;;;;;;869962;22;761;-84
2022/08/31 00:46:02;;;;;;;;;;;28.50;60.30;;;;;;869907;22;757;-84
2022/08/31 00:46:25;;;;;;;;;;;28.50;60.30;;;;;;870119;22;777;-83
2022/08/31 00:46:45;;;;;;;;;;;28.50;60.50;;;;;;869752;22;856;-84
2022/08/31 00:47:06;;;;;;;;;;;28.50;60.30;;;;;;869770;22;840;-82
2022/08/31 00:47:27;;;;;;;;;;;28.50;60.20;;;;;;870583;22;800;-82
2022/08/31 00:47:47;;;;;;;;;;;28.50;60.30;;;;;;870320;22;805;-85
2022/08/31 00:48:08;;;;;;;;;;;28.50;60.30;;;;;;870204;22;943;-84
2022/08/31 00:48:28;;;;;;;;;;;28.60;60.30;;;;;;870037;22;769;-86
2022/08/31 00:49:10;;;;;;;;;;;28.50;60.30;;;;;;869977;22;856;-82
2022/08/31 00:49:32;;;;;;;;;;;28.50;60.20;;;;;;869452;22;1884;-83
2022/08/31 00:49:52;;;;;;;;;;;28.50;60.20;;;;;;869908;22;828;-83
2022/08/31 00:50:16;;;;;;;;;;;28.50;60.20;;;;;;869910;22;864;-83
2022/08/31 00:50:37;;;;;;;;;;;28.50;60.20;;;;;;869832;22;908;-83
2022/08/31 00:50:58;;;;;;;;;;;28.50;60.20;;;;;;870251;22;785;-84
2022/08/31 00:51:18;;;;;;;;;;;28.50;60.20;;;;;;869880;22;828;-84
2022/08/31 00:51:51;;;;;;;;;;;28.60;60.30;;;;;;864805;22;868;-85
2022/08/31 00:52:13;;;;;;;;;;;28.50;60.20;;;;;;865482;22;919;-85
2022/08/31 00:52:36;;;;;;;;;;;28.50;60.10;;;;;;865223;22;907;-84
2022/08/31 00:52:58;;;;;;;;;;;28.50;60.20;;;;;;860970;23;1367;-83
2022/08/31 00:53:19;;;;;;;;;;;28.50;60.20;;;;;;861045;23;802;-83
2022/08/31 00:53:40;;;;;;;;;;;28.60;60.30;;;;;;865149;22;781;-84
2022/08/31 00:54:00;;;;;;;;;;;28.50;60.20;;;;;;865135;22;789;-82
2022/08/31 00:54:24;;;;;;;;;;;28.50;60.20;;;;;;865578;22;788;-83
2022/08/31 00:54:47;;;;;;;;;;;28.60;60.20;;;;;;866869;22;813;-83
2022/08/31 00:55:18;;;;;;;;;;;28.60;60.20;;;;;;869670;22;761;-86
2022/08/31 00:55:39;;;;;;;;;;;28.50;60.10;;;;;;869739;22;800;-85
2022/08/31 00:55:59;;;;;;;;;;;28.50;60.10;;;;;;869806;22;832;-84
2022/08/31 00:56:20;;;;;;;;;;;28.50;60.10;;;;;;869739;22;749;-83
2022/08/31 00:56:43;;;;;;;;;;;28.50;60.10;;;;;;869698;22;784;-85
2022/08/31 00:57:05;;;;;;;;;;;28.50;60.00;;;;;;869845;22;812;-82
2022/08/31 00:57:30;;;;;;;;;;;28.50;60.10;;;;;;869812;22;991;-82
2022/08/31 00:57:53;;;;;;;;;;;28.60;60.10;;;;;;869882;22;899;-82
2022/08/31 00:58:14;;;;;;;;;;;28.60;60.10;;;;;;869757;22;781;-83
2022/08/31 00:58:35;;;;;;;;;;;28.50;60.10;;;;;;869690;22;832;-84
2022/08/31 00:58:55;;;;;;;;;;;28.50;60.10;;;;;;869879;22;785;-82
2022/08/31 00:59:17;;;;;;;;;;;28.50;60.00;;;;;;869785;22;880;-83
2022/08/31 00:59:39;;;;;;;;;;;28.50;60.00;;;;;;869771;22;793;-82
2022/08/31 01:00:00;;;;;;;;;;;28.50;60.00;;;;;;869849;22;915;-85
2022/08/31 01:00:22;;;;;;;;;;;28.50;60.00;;;;;;865106;22;814;-82
2022/08/31 01:00:43;;;;;;;;;;;28.60;60.20;;;;;;865207;22;797;-82
2022/08/31 01:01:05;;;;;;;;;;;28.50;60.10;;;;;;865273;22;868;-83
2022/08/31 01:01:26;;;;;;;;;;;25.30;57.70;;;;;;865273;22;908;-83
2022/08/31 01:01:47;;;;;;;;;;;28.60;60.10;;;;;;865186;22;800;-84
2022/08/31 01:02:08;;;;;;;;;;;28.60;60.10;;;;;;866200;22;848;-82
2022/08/31 01:02:28;;;;;;;;;;;28.50;60.00;;;;;;869878;22;828;-83
2022/08/31 01:02:49;;;;;;;;;;;28.50;60.00;;;;;;869622;22;872;-82
2022/08/31 01:03:10;;;;;;;;;;;28.50;60.00;;;;;;869573;22;869;-82
2022/08/31 01:03:34;;;;;;;;;;;28.50;60.00;;;;;;869710;22;789;-82
2022/08/31 01:03:54;;;;;;;;;;;28.60;60.10;;;;;;869871;22;923;-83
2022/08/31 01:04:15;;;;;;;;;;;28.50;60.00;;;;;;869542;22;1884;-84
2022/08/31 01:04:36;;;;;;;;;;;28.60;60.30;;;;;;869691;22;789;-83
2022/08/31 01:04:56;;;;;;;;;;;28.50;60.00;;;;;;869860;22;829;-84
2022/08/31 01:05:17;;;;;;;;;;;28.50;60.00;;;;;;869680;22;892;-82
2022/08/31 01:05:39;;;;;;;;;;;28.60;60.10;;;;;;869536;22;882;-83
2022/08/31 01:06:01;;;;;;;;;;;28.60;60.10;;;;;;869664;22;844;-83
2022/08/31 01:06:24;;;;;;;;;;;28.60;60.10;;;;;;865170;22;1186;-84
2022/08/31 01:06:45;;;;;;;;;;;28.60;60.10;;;;;;865173;22;801;-83
2022/08/31 01:07:06;;;;;;;;;;;28.50;60.00;;;;;;865152;22;773;-84
2022/08/31 01:07:27;;;;;;;;;;;28.50;59.90;;;;;;865438;22;812;-84
2022/08/31 01:07:49;;;;;;;;;;;28.60;60.10;;;;;;865209;22;780;-84
2022/08/31 01:08:10;;;;;;;;;;;28.60;60.10;;;;;;866823;22;901;-82
2022/08/31 01:08:30;;;;;;;;;;;28.50;60.00;;;;;;869806;22;847;-82
2022/08/31 01:08:53;;;;;;;;;;;28.60;60.10;;;;;;869750;22;967;-82
2022/08/31 01:09:13;;;;;;;;;;;28.60;60.10;;;;;;869767;22;903;-83
2022/08/31 01:09:36;;;;;;;;;;;28.50;60.00;;;;;;869610;22;797;-79
2022/08/31 01:09:57;;;;;;;;;;;28.50;60.00;;;;;;869824;22;773;-83
2022/08/31 01:10:19;;;;;;;;;;;28.50;59.90;;;;;;869736;22;828;-81
2022/08/31 01:10:42;;;;;;;;;;;28.60;60.00;;;;;;869664;22;797;-81
2022/08/31 01:11:03;;;;;;;;;;;28.60;59.90;;;;;;869729;22;855;-82
2022/08/31 01:11:24;;;;;;;;;;;28.50;60.00;;;;;;869851;22;804;-83
2022/08/31 01:11:44;;;;;;;;;;;28.50;60.00;;;;;;869809;22;812;-83
2022/08/31 01:12:06;;;;;;;;;;;28.60;60.00;;;;;;869631;22;920;-83
2022/08/31 01:12:27;;;;;;;;;;;28.60;60.00;;;;;;869833;22;761;-82
2022/08/31 01:12:49;;;;;;;;;;;28.60;60.00;;;;;;869713;22;864;-82
2022/08/31 01:13:11;;;;;;;;;;;28.50;59.90;;;;;;869645;22;800;-82
2022/08/31 01:13:32;;;;;;;;;;;28.60;59.90;;;;;;869625;22;883;-83
2022/08/31 01:13:53;;;;;;;;;;;28.60;59.90;;;;;;869478;22;1128;-84
2022/08/31 01:14:14;;;;;;;;;;;28.50;59.80;;;;;;869686;22;788;-85
2022/08/31 01:14:36;;;;;;;;;;;28.60;59.90;;;;;;869582;22;908;-82
2022/08/31 01:14:57;;;;;;;;;;;28.60;59.90;;;;;;870025;22;780;-81
2022/08/31 01:15:18;;;;;;;;;;;28.60;59.90;;;;;;869623;22;909;-84
2022/08/31 01:15:43;;;;;;;;;;;28.50;59.60;;;;;;869691;22;781;-81
2022/08/31 01:16:04;;;;;;;;;;;;;;;;;;869565;22;766;-83
2022/08/31 01:16:31;;;;;;;;;;;28.50;59.80;;;;;;869811;22;788;-82
2022/08/31 01:16:53;;;;;;;;;;;28.60;59.90;;;;;;869793;22;809;-82
2022/08/31 01:17:16;;;;;;;;;;;28.50;59.80;;;;;;869604;22;805;-83
2022/08/31 01:17:37;;;;;;;;;;;28.60;59.90;;;;;;869582;22;766;-82
2022/08/31 01:17:59;;;;;;;;;;;28.50;59.90;;;;;;869859;22;820;-81
2022/08/31 01:18:20;;;;;;;;;;;28.50;59.90;;;;;;869619;22;765;-83
2022/08/31 01:18:41;;;;;;;;;;;28.50;59.90;;;;;;869725;22;777;-83
2022/08/31 01:19:04;;;;;;;;;;;28.50;59.90;;;;;;869549;22;785;-84
2022/08/31 01:19:43;;;;;;;;;;;28.50;59.90;;;;;;869813;22;789;-86
2022/08/31 01:20:14;;;;;;;;;;;28.50;59.90;;;;;;869648;22;805;-86
2022/08/31 01:20:34;;;;;;;;;;;28.50;60.00;;;;;;869644;22;833;-85
2022/08/31 01:21:15;;;;;;;;;;;28.50;60.00;;;;;;869769;22;931;-86
2022/08/31 01:21:43;;;;;;;;;;;28.50;60.10;;;;;;869739;22;824;-86
2022/08/31 01:22:11;;;;;;;;;;;28.50;60.10;;;;;;869631;22;812;-85
2022/08/31 01:22:44;;;;;;;;;;;28.40;60.00;;;;;;869754;22;762;-82
2022/08/31 01:23:07;;;;;;;;;;;28.50;60.20;;;;;;869606;22;868;-84
2022/08/31 01:23:32;;;;;;;;;;;28.50;60.30;;;;;;869847;22;816;-84
2022/08/31 01:23:54;;;;;;;;;;;28.40;60.20;;;;;;865181;22;1184;-82
2022/08/31 01:24:16;;;;;;;;;;;28.40;60.00;;;;;;865040;22;1888;-83
2022/08/31 01:24:43;;;;;;;;;;;28.40;60.00;;;;;;864995;22;853;-82
2022/08/31 01:25:05;;;;;;;;;;;28.40;60.20;;;;;;865243;22;923;-84
2022/08/31 01:25:26;;;;;;;;;;;28.50;60.20;;;;;;865354;22;821;-82
2022/08/31 01:25:47;;;;;;;;;;;28.40;60.10;;;;;;865204;22;778;-84
2022/08/31 01:26:08;;;;;;;;;;;;;;;;;;865195;22;853;-84
2022/08/31 01:26:30;;;;;;;;;;;28.40;60.00;;;;;;865315;22;817;-82
2022/08/31 01:26:51;;;;;;;;;;;28.50;60.20;;;;;;865314;22;817;-83
2022/08/31 01:27:13;;;;;;;;;;;28.50;60.30;;;;;;865076;22;790;-81
2022/08/31 01:27:35;;;;;;;;;;;28.40;60.20;;;;;;865204;22;781;-84
2022/08/31 01:27:56;;;;;;;;;;;28.40;60.00;;;;;;865259;22;793;-84
2022/08/31 01:28:17;;;;;;;;;;;28.50;60.00;;;;;;866716;22;813;-82
2022/08/31 01:28:37;;;;;;;;;;;28.40;60.00;;;;;;865068;22;809;-85
2022/08/31 01:29:00;;;;;;;;;;;28.50;60.10;;;;;;865334;22;793;-84
2022/08/31 01:29:21;;;;;;;;;;;28.40;60.10;;;;;;865264;22;908;-82
2022/08/31 01:29:41;;;;;;;;;;;28.40;60.20;;;;;;865189;22;868;-82
2022/08/31 01:30:04;;;;;;;;;;;28.40;60.40;;;;;;865185;22;813;-83
2022/08/31 01:30:25;;;;;;;;;;;;;;;;;;866675;22;956;-82
2022/08/31 01:30:56;;;;;;;;;;;28.40;60.10;;;;;;869637;22;770;-84
2022/08/31 01:31:25;;;;;;;;;;;28.40;60.10;;;;;;869683;22;777;-82
2022/08/31 01:31:46;;;;;;;;;;;28.40;60.20;;;;;;869608;22;835;-85
2022/08/31 01:32:07;;;;;;;;;;;28.50;60.40;;;;;;869561;22;797;-83
2022/08/31 01:32:28;;;;;;;;;;;28.40;60.40;;;;;;869834;22;789;-81
2022/08/31 01:32:49;;;;;;;;;;;28.40;60.40;;;;;;865009;22;837;-81
2022/08/31 01:33:11;;;;;;;;;;;28.40;60.20;;;;;;865005;22;857;-85
2022/08/31 01:33:34;;;;;;;;;;;28.40;60.20;;;;;;865111;22;817;-83
2022/08/31 01:33:54;;;;;;;;;;;28.40;60.20;;;;;;865160;22;1254;-82
2022/08/31 01:34:15;;;;;;;;;;;28.40;60.30;;;;;;865268;22;738;-82
2022/08/31 01:34:35;;;;;;;;;;;28.40;60.30;;;;;;866616;22;758;-83
2022/08/31 01:34:56;;;;;;;;;;;28.40;60.40;;;;;;869804;22;801;-84
2022/08/31 01:35:17;;;;;;;;;;;28.40;60.30;;;;;;864541;22;1315;-83
2022/08/31 01:35:41;;;;;;;;;;;28.40;60.30;;;;;;865068;22;988;-83
2022/08/31 01:36:02;;;;;;;;;;;28.40;60.20;;;;;;865203;22;825;-82
2022/08/31 01:36:24;;;;;;;;;;;28.40;60.40;;;;;;865259;22;761;-82
2022/08/31 01:36:46;;;;;;;;;;;28.40;60.20;;;;;;865269;22;800;-83
2022/08/31 01:37:07;;;;;;;;;;;28.40;60.40;;;;;;863025;22;1093;-82
2022/08/31 01:37:28;;;;;;;;;;;28.40;60.30;;;;;;860459;23;1100;-85
2022/08/31 01:37:48;;;;;;;;;;;28.40;60.20;;;;;;860988;23;848;-85
2022/08/31 01:38:09;;;;;;;;;;;28.40;60.30;;;;;;860978;23;857;-81
2022/08/31 01:38:30;;;;;;;;;;;28.40;60.30;;;;;;861091;23;790;-82
2022/08/31 01:38:51;;;;;;;;;;;28.40;60.40;;;;;;861588;22;849;-82
2022/08/31 01:39:12;;;;;;;;;;;28.40;60.30;;;;;;865699;22;845;-81
2022/08/31 01:39:32;;;;;;;;;;;28.40;60.30;;;;;;869618;22;829;-82
2022/08/31 01:39:53;;;;;;;;;;;28.30;60.10;;;;;;869771;22;790;-82
2022/08/31 01:40:16;;;;;;;;;;;28.40;60.20;;;;;;869595;22;758;-82
2022/08/31 01:40:44;;;;;;;;;;;28.40;60.20;;;;;;864984;22;813;-82
2022/08/31 01:41:05;;;;;;;;;;;28.40;60.30;;;;;;865107;22;901;-81
2022/08/31 01:41:26;;;;;;;;;;;28.40;60.30;;;;;;865362;22;965;-82
2022/08/31 01:41:46;;;;;;;;;;;28.40;60.30;;;;;;865448;22;761;-82
2022/08/31 01:42:07;;;;;;;;;;;28.40;60.30;;;;;;865303;22;797;-81
2022/08/31 01:42:27;;;;;;;;;;;28.40;60.30;;;;;;867291;22;880;-82
2022/08/31 01:42:48;;;;;;;;;;;28.20;60.20;;;;;;869791;22;879;-82
2022/08/31 01:43:08;;;;;;;;;;;28.40;60.40;;;;;;869721;22;497;-82
2022/08/31 01:43:32;;;;;;;;;;;28.40;60.40;;;;;;869837;22;789;-82
2022/08/31 01:43:58;;;;;;;;;;;28.40;60.30;;;;;;869824;22;805;-84
2022/08/31 01:44:20;;;;;;;;;;;28.40;60.40;;;;;;869486;22;1896;-81
2022/08/31 01:44:41;;;;;;;;;;;28.40;60.40;;;;;;869926;22;789;-82
2022/08/31 01:45:03;;;;;;;;;;;28.40;60.40;;;;;;870020;22;849;-83
2022/08/31 01:45:24;;;;;;;;;;;28.30;60.30;;;;;;869960;22;857;-82
2022/08/31 01:45:45;;;;;;;;;;;28.30;60.30;;;;;;869908;22;785;-83
2022/08/31 01:46:08;;;;;;;;;;;28.30;60.40;;;;;;869958;22;753;-82
2022/08/31 01:46:28;;;;;;;;;;;28.30;60.40;;;;;;865474;22;875;-81
2022/08/31 01:46:49;;;;;;;;;;;28.30;60.50;;;;;;865481;22;923;-83
2022/08/31 01:47:10;;;;;;;;;;;28.30;60.70;;;;;;861108;23;1403;-84
2022/08/31 01:47:30;;;;;;;;;;;28.30;60.40;;;;;;861253;23;962;-84
2022/08/31 01:47:51;;;;;;;;;;;28.30;60.30;;;;;;861345;23;816;-83
2022/08/31 01:48:11;;;;;;;;;;;28.30;60.40;;;;;;856066;23;1178;-81
2022/08/31 01:48:32;;;;;;;;;;;28.30;60.40;;;;;;861282;23;778;-83
2022/08/31 01:48:53;;;;;;;;;;;28.40;60.50;;;;;;861890;22;797;-82
2022/08/31 01:49:14;;;;;;;;;;;28.30;60.40;;;;;;865523;22;820;-84
2022/08/31 01:49:35;;;;;;;;;;;28.30;60.30;;;;;;865654;22;769;-83
2022/08/31 01:49:55;;;;;;;;;;;28.30;60.40;;;;;;866360;22;889;-82
2022/08/31 01:50:16;;;;;;;;;;;28.30;60.40;;;;;;870314;22;777;-82
2022/08/31 01:50:36;;;;;;;;;;;28.30;60.40;;;;;;869926;22;931;-82
2022/08/31 01:50:57;;;;;;;;;;;28.30;60.40;;;;;;870204;22;812;-83
2022/08/31 01:51:19;;;;;;;;;;;28.20;60.30;;;;;;870111;22;816;-83
2022/08/31 01:51:40;;;;;;;;;;;28.30;60.40;;;;;;870159;22;814;-82
2022/08/31 01:52:01;;;;;;;;;;;28.30;60.50;;;;;;870180;22;924;-85
2022/08/31 01:52:21;;;;;;;;;;;28.30;60.50;;;;;;865626;22;1084;-83
2022/08/31 01:52:42;;;;;;;;;;;28.30;60.50;;;;;;865776;22;864;-82
2022/08/31 01:53:03;;;;;;;;;;;28.30;60.50;;;;;;865714;22;856;-82
2022/08/31 01:53:24;;;;;;;;;;;28.30;60.50;;;;;;865705;22;797;-82
2022/08/31 01:53:45;;;;;;;;;;;28.20;60.40;;;;;;861146;23;1376;-81
2022/08/31 01:54:06;;;;;;;;;;;28.30;60.60;;;;;;862058;22;2035;-83
2022/08/31 01:54:26;;;;;;;;;;;28.30;60.60;;;;;;865704;22;1311;-82
2022/08/31 01:54:47;;;;;;;;;;;28.30;60.70;;;;;;865617;22;789;-82
2022/08/31 01:55:07;;;;;;;;;;;28.30;60.80;;;;;;861423;23;845;-82
2022/08/31 01:55:28;;;;;;;;;;;28.30;60.90;;;;;;862444;22;841;-82
2022/08/31 01:55:48;;;;;;;;;;;28.30;60.90;;;;;;865746;22;773;-82
2022/08/31 01:56:10;;;;;;;;;;;28.30;60.80;;;;;;861281;23;1388;-82
2022/08/31 01:56:33;;;;;;;;;;;28.30;60.80;;;;;;861431;23;786;-82
2022/08/31 01:56:54;;;;;;;;;;;28.30;60.60;;;;;;862751;22;809;-84
2022/08/31 01:57:14;;;;;;;;;;;28.30;60.40;;;;;;865673;22;765;-81
2022/08/31 01:57:35;;;;;;;;;;;29.90;61.60;;;;;;865578;22;801;-83
2022/08/31 01:57:57;;;;;;;;;;;28.30;60.50;;;;;;867115;22;792;-82
2022/08/31 01:58:17;;;;;;;;;;;28.30;60.40;;;;;;870259;22;950;-82
2022/08/31 01:58:38;;;;;;;;;;;28.30;60.40;;;;;;871911;22;809;-81
2022/08/31 01:58:59;;;;;;;;;;;28.30;60.40;;;;;;873764;22;1070;-81
2022/08/31 01:59:20;;;;;;;;;;;28.30;60.40;;;;;;873250;22;1126;-82
2022/08/31 01:59:41;;;;;;;;;;;28.30;60.40;;;;;;873713;22;991;-81
2022/08/31 02:00:07;;;;;;;;;;;28.30;60.50;;;;;;873140;22;975;-81
2022/08/31 02:00:27;;;;;;;;;;;28.20;60.40;;;;;;873538;22;919;-81
2022/08/31 02:00:48;;;;;;;;;;;28.30;60.50;;;;;;873087;22;1077;-81
2022/08/31 02:01:09;;;;;;;;;;;28.30;60.70;;;;;;873140;22;903;-80
2022/08/31 02:01:31;;;;;;;;;;;28.30;60.70;;;;;;872843;22;1081;-81
2022/08/31 02:01:53;;;;;;;;;;;28.30;60.60;;;;;;872640;22;998;-81
2022/08/31 02:02:13;;;;;;;;;;;28.20;60.50;;;;;;872939;22;990;-81
2022/08/31 02:02:34;;;;;;;;;;;28.30;60.50;;;;;;873370;22;975;-81
2022/08/31 02:02:56;;;;;;;;;;;28.20;60.50;;;;;;873179;22;1069;-81
2022/08/31 02:03:16;;;;;;;;;;;28.30;60.50;;;;;;872619;22;788;-81
2022/08/31 02:03:37;;;;;;;;;;;28.30;60.60;;;;;;873432;22;825;-82
2022/08/31 02:03:57;;;;;;;;;;;28.20;60.90;;;;;;873069;22;1011;-81
2022/08/31 02:04:20;;;;;;;;;;;28.30;60.90;;;;;;873393;22;1941;-82
2022/08/31 02:04:40;;;;;;;;;;;28.30;60.80;;;;;;873385;22;998;-81
2022/08/31 02:05:01;;;;;;;;;;;28.30;60.60;;;;;;873133;22;959;-81
2022/08/31 02:05:22;;;;;;;;;;;28.30;60.60;;;;;;873612;22;999;-80
2022/08/31 02:05:42;;;;;;;;;;;28.20;60.50;;;;;;872459;22;889;-82
2022/08/31 02:06:10;;;;;;;;;;;28.20;60.50;;;;;;873460;22;1031;-79
2022/08/31 02:06:31;;;;;;;;;;;28.20;61.30;;;;;;872661;22;978;-81
2022/08/31 02:06:53;;;;;;;;;;;28.20;60.50;;;;;;872766;22;1033;-78
2022/08/31 02:07:14;;;;;;;;;;;28.30;60.60;;;;;;871867;22;839;-81
2022/08/31 02:07:35;;;;;;;;;;;28.30;60.60;;;;;;871553;22;765;-80
2022/08/31 02:07:56;;;;;;;;;;;28.30;60.60;;;;;;872239;22;946;-79
2022/08/31 02:08:16;;;;;;;;;;;28.30;60.50;;;;;;872482;22;1046;-84
2022/08/31 02:08:37;;;;;;;;;;;28.20;60.40;;;;;;871729;22;843;-81
2022/08/31 02:08:58;;;;;;;;;;;28.20;60.50;;;;;;871321;22;1017;-80
2022/08/31 02:09:19;;;;;;;;;;;28.30;60.60;;;;;;871439;22;998;-81
2022/08/31 02:09:40;;;;;;;;;;;28.30;60.60;;;;;;871817;22;891;-80
2022/08/31 02:10:01;;;;;;;;;;;28.20;60.50;;;;;;872376;22;856;-83
2022/08/31 02:10:22;;;;;;;;;;;28.10;60.40;;;;;;872897;22;1085;-82
2022/08/31 02:10:43;;;;;;;;;;;28.20;60.40;;;;;;872702;22;963;-81
2022/08/31 02:11:04;;;;;;;;;;;28.20;60.40;;;;;;872099;22;825;-80
2022/08/31 02:11:25;;;;;;;;;;;28.30;60.50;;;;;;871807;22;1474;-81
2022/08/31 02:11:46;;;;;;;;;;;28.30;60.60;;;;;;871671;22;971;-82
2022/08/31 02:12:07;;;;;;;;;;;28.20;60.60;;;;;;872007;22;909;-85
2022/08/31 02:12:27;;;;;;;;;;;28.10;60.60;;;;;;871249;22;932;-82
2022/08/31 02:12:48;;;;;;;;;;;28.30;60.70;;;;;;871763;22;993;-79
2022/08/31 02:13:09;;;;;;;;;;;28.20;60.70;;;;;;871142;22;881;-79
2022/08/31 02:13:30;;;;;;;;;;;28.30;60.60;;;;;;871975;22;777;-85
2022/08/31 02:13:50;;;;;;;;;;;28.20;60.60;;;;;;871817;22;982;-81
2022/08/31 02:14:13;;;;;;;;;;;28.30;60.50;;;;;;871015;22;807;-88
2022/08/31 02:14:33;;;;;;;;;;;28.20;60.50;;;;;;866876;22;1239;-81
2022/08/31 02:14:54;;;;;;;;;;;28.30;60.60;;;;;;867202;22;891;-83
2022/08/31 02:15:14;;;;;;;;;;;28.30;60.40;;;;;;867897;22;951;-78
2022/08/31 02:15:36;;;;;;;;;;;28.30;60.60;;;;;;868212;22;831;-83